Time;durP1;ratioP1;P1;durP2;ratioP2;P2;SDS_P1;SDS_P2;PMS_P1;PMS_P2;Temp;Humidity;BMP_temperature;BMP_pressure;BME280_temperature;BME280_humidity;BME280_pressure;Samples;Min_cycle;Max_cycle;Signal;HPM_P1;HPM_P2
2021/09/21 16:37:24;;;;;;;12.25;2.83;;;20.00;57.60;;;;;;5049633;28;20118;-82
2021/09/21 16:44:00;;;;;;;10.07;2.40;;;19.70;63.60;;;;;;5073734;28;20441;-67
2021/09/21 16:50:39;;;;;;;9.13;2.60;;;20.30;61.10;;;;;;5108791;27;20438;-72
2021/09/21 16:53:07;;;;;;;8.23;3.10;;;20.20;60.50;;;;;;5106279;28;20032;-74
2021/09/21 16:55:35;;;;;;;9.98;2.58;;;20.00;61.00;;;;;;5107666;28;20496;-73
2021/09/21 16:58:04;;;;;;;4.38;2.28;;;19.80;61.60;;;;;;5108569;28;20043;-74
2021/09/21 17:00:33;;;;;;;7.28;2.85;;;19.60;61.90;;;;;;5096601;28;20489;-74
2021/09/21 17:03:13;;;;;;;9.35;2.97;;;19.40;62.30;;;;;;5107277;28;20040;-73
2021/09/21 17:05:44;;;;;;;9.88;2.28;;;19.30;62.90;;;;;;5102048;28;20056;-74
2021/09/21 17:08:12;;;;;;;9.82;2.40;;;19.00;63.70;;;;;;5100970;28;20060;-73
2021/09/21 17:10:40;;;;;;;9.95;3.70;;;18.80;64.30;;;;;;5107438;28;20428;-75
2021/09/21 17:13:08;;;;;;;8.80;3.30;;;18.70;65.00;;;;;;5104373;28;20032;-75
2021/09/21 17:15:36;;;;;;;15.00;4.65;;;18.50;65.70;;;;;;5105551;28;20041;-74
2021/09/21 17:18:03;;;;;;;9.90;3.25;;;18.40;66.40;;;;;;5101747;28;20504;-75
2021/09/21 17:20:31;;;;;;;13.05;3.70;;;18.30;67.20;;;;;;5108648;28;20039;-74
2021/09/21 17:22:59;;;;;;;9.02;3.30;;;18.20;67.80;;;;;;5107567;28;20404;-76
2021/09/21 17:25:47;;;;;;;13.65;3.92;;;18.00;68.40;;;;;;5108212;28;20401;-72
2021/09/21 17:28:15;;;;;;;10.02;3.15;;;17.80;68.70;;;;;;5105943;28;20481;-75
2021/09/21 17:30:43;;;;;;;9.57;2.50;;;17.80;68.90;;;;;;5107676;28;20048;-74
2021/09/21 17:33:10;;;;;;;11.73;3.03;;;17.60;69.20;;;;;;5108013;28;20075;-78
2021/09/21 17:35:38;;;;;;;7.07;2.55;;;17.50;69.50;;;;;;5108067;28;20048;-76
2021/09/21 17:38:06;;;;;;;9.77;2.88;;;17.30;69.90;;;;;;5107833;28;20055;-74
2021/09/21 17:40:34;;;;;;;17.05;7.55;;;17.20;70.30;;;;;;5107996;28;20519;-73
2021/09/21 17:43:02;;;;;;;10.57;3.25;;;17.10;70.60;;;;;;5108376;28;20416;-75
2021/09/21 17:45:36;;;;;;;12.07;2.88;;;17.00;71.10;;;;;;5106955;28;20040;-75
2021/09/21 17:48:06;;;;;;;8.80;2.78;;;16.80;71.60;;;;;;5105614;28;20051;-75
2021/09/21 17:50:35;;;;;;;10.23;2.80;;;16.70;72.10;;;;;;5105834;28;20035;-74
2021/09/21 17:53:03;;;;;;;11.57;2.75;;;16.60;72.60;;;;;;5106743;28;20044;-75
2021/09/21 17:55:32;;;;;;;12.82;2.83;;;16.40;73.10;;;;;;5107938;28;20378;-74
2021/09/21 17:58:01;;;;;;;6.57;2.47;;;16.30;73.50;;;;;;5108276;28;20142;-74
2021/09/21 18:00:30;;;;;;;10.32;4.18;;;16.20;74.00;;;;;;5101455;28;20056;-73
2021/09/21 18:03:00;;;;;;;13.63;4.30;;;16.00;74.70;;;;;;5093579;28;20051;-74
2021/09/21 18:05:29;;;;;;;15.93;4.50;;;15.80;75.20;;;;;;5078549;28;20045;-73
2021/09/21 18:07:59;;;;;;;13.90;3.95;;;15.80;75.80;;;;;;5094370;28;20405;-74
2021/09/21 18:10:27;;;;;;;13.75;4.65;;;15.60;76.30;;;;;;5094384;28;20052;-73
2021/09/21 18:12:55;;;;;;;17.73;4.82;;;15.50;76.70;;;;;;5094320;28;20428;-73
2021/09/21 18:15:36;;;;;;;12.85;3.28;;;15.40;77.10;;;;;;5093825;28;20040;-74
2021/09/21 18:18:19;;;;;;;8.95;3.78;;;15.30;77.90;;;;;;5093410;28;20405;-74
2021/09/21 18:21:18;;;;;;;11.50;4.32;;;15.20;78.40;;;;;;5092871;28;20044;-73
2021/09/21 18:23:46;;;;;;;16.98;5.22;;;15.00;78.60;;;;;;5094024;28;20059;-73
2021/09/21 18:26:16;;;;;;;12.98;4.47;;;14.90;78.70;;;;;;5070679;28;20040;-73
2021/09/21 18:28:46;;;;;;;12.02;3.95;;;14.80;79.00;;;;;;5074297;28;20056;-75
2021/09/21 18:31:15;;;;;;;9.35;3.63;;;14.70;79.50;;;;;;5073839;28;20048;-75
2021/09/21 18:33:43;;;;;;;16.52;4.68;;;14.60;79.80;;;;;;5092600;28;20527;-75
2021/09/21 18:36:12;;;;;;;13.88;3.70;;;14.50;80.10;;;;;;5094175;28;20053;-74
2021/09/21 18:38:42;;;;;;;12.20;4.07;;;14.40;80.40;;;;;;5093039;28;20056;-74
2021/09/21 18:41:10;;;;;;;14.82;4.18;;;14.30;80.80;;;;;;5094012;28;20055;-74
2021/09/21 18:43:39;;;;;;;20.00;4.90;;;14.30;81.00;;;;;;5092698;28;20040;-74
2021/09/21 18:46:08;;;;;;;16.75;5.05;;;14.20;81.40;;;;;;5075828;28;20535;-73
2021/09/21 18:48:36;;;;;;;11.85;3.58;;;14.10;81.70;;;;;;5091105;28;20056;-74
2021/09/21 18:51:06;;;;;;;14.27;3.88;;;14.00;81.90;;;;;;5094027;28;20044;-75
2021/09/21 18:53:34;;;;;;;17.17;5.05;;;13.90;82.10;;;;;;5093900;28;20048;-74
2021/09/21 18:56:03;;;;;;;15.88;4.57;;;13.80;82.30;;;;;;5093709;28;20526;-76
2021/09/21 18:58:31;;;;;;;10.30;3.70;;;13.80;82.50;;;;;;5093221;28;20401;-75
2021/09/21 19:01:04;;;;;;;10.93;4.30;;;13.80;82.80;;;;;;5092361;28;20051;-74
2021/09/21 19:03:33;;;;;;;18.15;4.55;;;13.70;83.00;;;;;;5093263;28;20059;-73
2021/09/21 19:06:05;;;;;;;16.92;6.35;;;13.60;83.10;;;;;;5089828;28;20048;-75
2021/09/21 19:08:43;;;;;;;19.23;6.40;;;13.60;83.30;;;;;;5091546;28;20040;-73
2021/09/21 19:11:16;;;;;;;11.85;5.40;;;13.50;83.40;;;;;;5074197;28;20044;-73
2021/09/21 19:13:47;;;;;;;15.20;5.43;;;13.50;83.50;;;;;;5060649;28;20048;-74
2021/09/21 19:16:20;;;;;;;16.70;5.95;;;13.40;83.60;;;;;;5093615;28;20052;-72
2021/09/21 19:18:51;;;;;;;24.33;6.25;;;13.30;83.80;;;;;;5064627;28;20075;-73
2021/09/21 19:21:27;;;;;;;21.45;5.47;;;13.30;84.10;;;;;;5070299;28;20048;-73
2021/09/21 19:24:06;;;;;;;21.85;6.53;;;13.20;84.30;;;;;;5069990;28;20052;-73
2021/09/21 19:26:58;;;;;;;17.63;5.78;;;13.20;84.40;;;;;;5064558;28;20411;-72
2021/09/21 19:29:47;;;;;;;15.75;5.30;;;13.10;84.60;;;;;;5068395;28;20625;-72
2021/09/21 19:32:20;;;;;;;13.05;5.20;;;13.00;84.70;;;;;;5064395;28;20040;-72
2021/09/21 19:34:53;;;;;;;14.43;5.93;;;12.90;84.80;;;;;;5069390;28;20048;-73
2021/09/21 19:37:23;;;;;;;14.50;6.20;;;12.80;85.00;;;;;;5070303;28;20055;-73
2021/09/21 19:39:57;;;;;;;16.77;6.25;;;12.80;85.40;;;;;;5069295;28;20183;-73
2021/09/21 19:42:25;;;;;;;16.38;6.47;;;12.70;85.50;;;;;;5070316;28;20059;-73
2021/09/21 19:44:53;;;;;;;13.05;6.03;;;12.70;85.70;;;;;;5069142;28;20053;-73
2021/09/21 19:47:22;;;;;;;11.77;4.90;;;12.60;85.90;;;;;;5066749;28;20060;-73
2021/09/21 19:49:52;;;;;;;13.65;5.50;;;12.60;86.10;;;;;;5052391;28;20548;-72
2021/09/21 19:52:21;;;;;;;16.33;6.45;;;12.60;86.10;;;;;;5063094;28;20397;-73
2021/09/21 19:54:50;;;;;;;15.63;5.85;;;12.50;86.20;;;;;;5085339;28;20052;-72
2021/09/21 19:57:19;;;;;;;18.27;6.35;;;12.40;86.30;;;;;;5080493;28;20036;-75
2021/09/21 19:59:47;;;;;;;19.13;6.97;;;12.40;86.40;;;;;;5085923;28;20055;-74
2021/09/21 20:02:16;;;;;;;15.40;6.75;;;12.30;86.40;;;;;;5091859;28;20051;-74
2021/09/21 20:04:45;;;;;;;13.07;6.40;;;12.30;86.70;;;;;;5090311;28;20531;-74
2021/09/21 20:07:13;;;;;;;27.02;10.40;;;12.30;86.80;;;;;;5087313;28;20052;-73
2021/09/21 20:09:40;;;;;;;35.47;13.73;;;12.30;87.00;;;;;;5090610;28;20509;-74
2021/09/21 20:12:08;;;;;;;25.50;11.40;;;12.20;87.20;;;;;;5091890;28;20529;-74
2021/09/21 20:14:36;;;;;;;29.15;12.38;;;12.20;87.30;;;;;;5092017;28;20044;-74
2021/09/21 20:17:04;;;;;;;28.95;12.18;;;12.20;87.40;;;;;;5090000;28;20051;-73
2021/09/21 20:19:35;;;;;;;28.25;12.68;;;12.20;87.60;;;;;;5091906;28;20051;-73
2021/09/21 20:22:05;;;;;;;32.65;13.48;;;12.20;87.60;;;;;;5092127;28;20114;-73
2021/09/21 20:24:36;;;;;;;29.40;12.40;;;12.10;87.70;;;;;;5091813;28;20055;-74
2021/09/21 20:27:04;;;;;;;30.33;12.27;;;12.10;87.70;;;;;;5092034;28;20055;-73
2021/09/21 20:29:34;;;;;;;21.92;11.10;;;12.10;87.80;;;;;;5092313;28;20052;-74
2021/09/21 20:32:08;;;;;;;30.83;11.52;;;12.00;87.80;;;;;;5090201;28;20051;-75
2021/09/21 20:39:54;;;;;;;30.20;10.98;;;11.80;88.10;;;;;;5091751;28;20504;-73
2021/09/21 20:42:24;;;;;;;22.38;10.90;;;11.80;88.30;;;;;;5092032;28;20404;-73
2021/09/21 20:44:52;;;;;;;25.60;10.52;;;11.70;88.40;;;;;;5090578;28;20040;-73
2021/09/21 20:47:21;;;;;;;26.13;11.32;;;11.70;88.50;;;;;;5090939;28;20047;-72
2021/09/21 20:49:49;;;;;;;27.17;10.85;;;11.60;88.50;;;;;;5090990;28;20044;-73
2021/09/21 20:52:17;;;;;;;24.40;10.32;;;11.60;88.60;;;;;;5091244;28;20048;-73
2021/09/21 20:54:45;;;;;;;20.75;9.90;;;11.60;88.70;;;;;;5089173;28;20485;-74
2021/09/21 20:57:13;;;;;;;25.17;9.93;;;11.50;88.80;;;;;;5088685;28;20060;-73
2021/09/21 20:59:41;;;;;;;21.42;9.90;;;11.50;88.80;;;;;;5090624;28;20067;-73
2021/09/21 21:02:09;;;;;;;26.65;10.57;;;11.50;88.90;;;;;;5085857;28;20040;-73
2021/09/21 21:04:38;;;;;;;19.38;10.20;;;11.40;88.90;;;;;;5090996;28;20047;-73
2021/09/21 21:07:06;;;;;;;20.55;10.38;;;11.40;88.80;;;;;;5090860;28;20063;-73
2021/09/21 21:09:34;;;;;;;24.45;10.27;;;11.30;88.90;;;;;;5091197;28;20055;-73
2021/09/21 21:12:01;;;;;;;18.70;10.75;;;11.30;88.90;;;;;;5088111;28;20056;-74
2021/09/21 21:14:29;;;;;;;20.63;9.18;;;11.30;89.00;;;;;;5087263;28;20052;-73
2021/09/21 21:16:57;;;;;;;26.10;11.57;;;11.20;89.10;;;;;;5089252;28;20063;-73
2021/09/21 21:19:25;;;;;;;20.90;10.63;;;11.20;89.30;;;;;;5089003;28;20063;-73
2021/09/21 21:21:53;;;;;;;26.42;10.10;;;11.20;89.30;;;;;;5089746;28;20044;-73
2021/09/21 21:24:21;;;;;;;19.92;9.55;;;11.10;89.40;;;;;;5089805;28;20396;-74
2021/09/21 21:26:48;;;;;;;25.30;12.30;;;11.20;89.50;;;;;;5111241;28;20049;-73
2021/09/21 21:29:16;;;;;;;37.53;12.75;;;11.10;89.60;;;;;;5090102;28;20032;-73
2021/09/21 21:31:44;;;;;;;38.70;14.90;;;11.10;89.50;;;;;;5089001;28;20052;-74
2021/09/21 21:34:11;;;;;;;42.65;15.85;;;11.10;89.50;;;;;;5090087;28;20056;-73
2021/09/21 21:36:39;;;;;;;37.33;14.25;;;11.10;89.60;;;;;;5091445;28;20044;-73
2021/09/21 21:39:07;;;;;;;36.13;13.02;;;11.00;89.70;;;;;;5091855;28;20043;-73
2021/09/21 21:41:35;;;;;;;34.03;13.07;;;10.90;89.80;;;;;;5092155;28;20151;-73
2021/09/21 21:44:03;;;;;;;26.08;11.07;;;10.90;89.90;;;;;;5093956;28;20063;-74
2021/09/21 21:46:30;;;;;;;27.65;12.10;;;10.80;90.00;;;;;;5090352;28;20051;-74
2021/09/21 21:48:58;;;;;;;27.85;12.20;;;10.80;90.00;;;;;;5091211;28;20044;-74
2021/09/21 21:51:28;;;;;;;22.10;10.73;;;10.80;90.10;;;;;;5093436;28;20052;-73
2021/09/21 21:53:57;;;;;;;19.33;9.63;;;10.80;90.10;;;;;;5091936;28;20036;-74
2021/09/21 21:56:25;;;;;;;21.17;11.02;;;10.70;90.20;;;;;;5091942;28;20048;-73
2021/09/21 21:58:53;;;;;;;22.33;10.65;;;10.70;90.10;;;;;;5093878;28;20488;-73
2021/09/21 22:01:20;;;;;;;22.77;10.35;;;10.70;90.20;;;;;;5092568;28;20051;-73
2021/09/21 22:03:48;;;;;;;35.60;14.10;;;10.60;90.30;;;;;;5091663;28;20041;-73
2021/09/21 22:06:16;;;;;;;40.88;15.10;;;10.60;90.30;;;;;;5092121;28;20493;-73
2021/09/21 22:08:43;;;;;;;44.97;17.15;;;10.50;90.50;;;;;;5092967;28;20043;-74
2021/09/21 22:11:11;;;;;;;31.40;15.32;;;10.50;90.60;;;;;;5093475;28;20056;-73
2021/09/21 22:13:39;;;;;;;38.40;15.55;;;10.50;90.70;;;;;;5092759;28;20061;-73
2021/09/21 22:16:06;;;;;;;26.30;12.68;;;10.50;90.70;;;;;;5092764;28;20048;-73
2021/09/21 22:18:34;;;;;;;23.05;11.70;;;10.50;90.70;;;;;;5094405;28;20044;-73
2021/09/21 22:21:02;;;;;;;22.33;12.40;;;10.50;90.80;;;;;;5093277;28;20044;-73
2021/09/21 22:23:29;;;;;;;28.52;12.73;;;10.40;90.80;;;;;;5092374;28;20056;-74
2021/09/21 22:25:57;;;;;;;21.85;12.30;;;10.40;90.90;;;;;;5090885;28;20047;-74
2021/09/21 22:28:26;;;;;;;18.17;10.90;;;10.30;91.00;;;;;;5087933;28;20044;-73
2021/09/21 22:30:54;;;;;;;19.58;9.57;;;10.30;91.10;;;;;;5073921;28;20130;-72
2021/09/21 22:33:23;;;;;;;23.95;11.70;;;10.30;91.10;;;;;;5090319;28;20059;-73
2021/09/21 22:35:50;;;;;;;22.83;11.43;;;10.30;91.10;;;;;;5091388;28;20052;-72
2021/09/21 22:38:18;;;;;;;23.23;11.45;;;10.30;91.10;;;;;;5092394;28;20036;-73
2021/09/21 22:40:46;;;;;;;29.30;14.38;;;10.20;91.20;;;;;;5090461;28;20485;-73
2021/09/21 22:43:14;;;;;;;39.95;17.17;;;10.20;91.30;;;;;;5091415;28;20043;-73
2021/09/21 22:45:41;;;;;;;45.25;17.27;;;10.20;91.30;;;;;;5091361;28;20036;-73
2021/09/21 22:48:09;;;;;;;52.78;18.25;;;10.20;91.40;;;;;;5091782;28;20473;-72
2021/09/21 22:50:37;;;;;;;40.08;16.98;;;10.20;91.40;;;;;;5089891;28;20047;-74
2021/09/21 22:53:04;;;;;;;39.03;15.15;;;10.10;91.30;;;;;;5092192;28;20048;-73
2021/09/21 22:55:32;;;;;;;35.97;15.85;;;10.10;91.40;;;;;;5091214;28;20043;-73
2021/09/21 22:58:01;;;;;;;23.98;12.07;;;10.00;91.50;;;;;;5091170;28;20040;-73
2021/09/21 23:00:29;;;;;;;26.13;12.13;;;10.00;91.60;;;;;;5092438;28;20044;-72
2021/09/21 23:02:57;;;;;;;24.23;12.10;;;10.00;91.60;;;;;;5091679;28;20048;-73
2021/09/21 23:05:25;;;;;;;29.02;13.05;;;9.90;91.70;;;;;;5091689;28;20044;-72
2021/09/21 23:07:52;;;;;;;29.00;13.00;;;10.00;91.70;;;;;;5092589;28;20044;-73
2021/09/21 23:10:20;;;;;;;39.95;15.65;;;9.90;91.70;;;;;;5092755;28;20040;-74
2021/09/21 23:12:48;;;;;;;23.27;12.32;;;9.90;91.80;;;;;;5091760;28;20040;-73
2021/09/21 23:15:16;;;;;;;44.13;15.05;;;9.90;91.80;;;;;;5092351;28;20036;-73
2021/09/21 23:17:44;;;;;;;35.00;15.73;;;9.90;91.70;;;;;;5092384;28;20075;-73
2021/09/21 23:20:13;;;;;;;36.78;16.45;;;9.80;91.60;;;;;;5092760;28;20051;-73
2021/09/21 23:22:42;;;;;;;39.50;15.75;;;9.70;91.70;;;;;;5091282;28;20500;-72
2021/09/21 23:25:11;;;;;;;26.38;14.13;;;9.70;91.90;;;;;;5092338;28;20679;-74
2021/09/21 23:27:39;;;;;;;30.45;14.25;;;9.70;92.20;;;;;;5091916;28;20051;-74
2021/09/21 23:30:07;;;;;;;30.77;13.57;;;9.70;92.10;;;;;;5092149;28;20044;-73
2021/09/21 23:32:37;;;;;;;33.20;13.90;;;9.60;92.10;;;;;;5091893;28;20048;-73
2021/09/21 23:35:05;;;;;;;32.47;14.82;;;9.60;92.20;;;;;;5090076;28;20044;-74
2021/09/21 23:37:32;;;;;;;41.75;15.93;;;9.60;92.10;;;;;;5091555;28;20052;-74
2021/09/21 23:40:01;;;;;;;51.38;18.38;;;9.60;92.20;;;;;;5091713;28;20062;-74
2021/09/21 23:42:28;;;;;;;43.67;16.90;;;9.60;92.40;;;;;;5090516;28;20408;-73
2021/09/21 23:44:56;;;;;;;42.20;16.60;;;9.60;92.40;;;;;;5091418;28;20040;-73
2021/09/21 23:47:23;;;;;;;40.08;14.25;;;9.50;92.20;;;;;;5091769;28;20052;-73
2021/09/21 23:49:52;;;;;;;34.40;14.43;;;9.50;92.10;;;;;;5090931;28;20051;-73
2021/09/21 23:52:19;;;;;;;31.10;14.27;;;9.40;92.10;;;;;;5091532;28;20397;-73
2021/09/21 23:54:48;;;;;;;37.42;14.80;;;9.30;92.20;;;;;;5091586;28;20456;-73
2021/09/21 23:57:15;;;;;;;21.63;11.45;;;9.30;92.40;;;;;;5091858;28;20040;-72
2021/09/21 23:59:43;;;;;;;21.02;10.75;;;9.30;92.50;;;;;;5090959;28;20052;-73
